<<    Juni 2011    >>
Datum    Temp.       Tempmin      Tempmax    Taup.       Taup.min      Taup.max    Feuchte    Feuchtemin    Feuchtemax    Druck    Druckmin    Druckmax    Regen    Wind    Benmax  
  01.06.2011  15,2    9,4    06:17    21,2    16:58  5,1    1,0    18:06    10,0    00:00  56,0    28    17:07    89    01:16  1027,3    1023    00:00    1030    21:59  0,0  4,0  19,4  
  02.06.2011  17,7    9,0    05:24    25,2    16:03  3,1    -0,4    22:38    6,2    07:09  42,0    22    15:02    75    06:01  1031,0    1029    16:13    1032    04:43  0,0  4,2  23,4  
  03.06.2011  21,0    11,6    03:54    28,8    17:00  6,2    0,3    00:49    9,9    21:27  40,0    25    14:17    65    06:19  1027,3    1022    19:13    1032    01:28  0,0  4,1  23,8  
  04.06.2011  23,9    15,3    05:35    31,5    16:17  10,5    8,9    20:16    13,2    08:06  45,7    28    13:38    75    06:07  1016,9    1011    20:28    1023    00:00  0,0  3,4  22,0  
  05.06.2011  21,2    17,8    04:42    28,1    14:10  16,1    11,4    00:00    18,1    16:26  74,2    46    14:17    93    05:41  1006,6    1003    16:13    1011    00:00  7,6  1,5  12,2  
  06.06.2011  20,8    17,2    05:49    28,1    13:45  15,0    10,5    15:59    17,8    08:37  73,4    35    17:05    94    23:45  1002,6    1001    13:42    1004    00:00  2,9  1,7  17,6  
  07.06.2011  19,1    15,0    06:57    24,2    17:17  12,2    9,9    17:22    16,9    00:09  66,9    41    17:19    94    00:09  1004,4    1001    20:46    1007    11:01  2,1  2,7  25,2  
  08.06.2011  15,7    11,8    06:33    20,4    16:58  9,6    3,6    18:15    15,8    03:47  72,0    35    16:47    98    00:52  1007,2    1002    01:46    1012    23:59  13,1  3,2  21,2  
  09.06.2011  16,0    10,9    05:30    21,1    17:00  5,0    3,1    17:44    6,7    03:08  49,6    34    12:32    69    05:31  1015,1    1011    01:16    1018    22:15  0,0  2,2  17,6  
  10.06.2011  15,7    12,1    00:40    21,4    14:11  8,5    5,4    14:27    11,0    22:36  63,7    36    14:27    85    23:59  1015,7    1013    17:15    1018    00:00  1,1  1,2  15,1  
  11.06.2011  14,9    10,4    06:49    21,9    14:37  7,3    3,9    15:09    11,0    00:19  63,4    34    14:16    89    06:53  1017,3    1015    00:45    1019    11:45  1,0  2,0  23,8  
  12.06.2011  15,8    9,3    05:03    22,2    16:38  6,5    3,2    19:45    9,8    07:11  58,5    32    15:57    91    05:45  1019,0    1016    23:00    1021    06:30  0,0  1,4  14,4  
  13.06.2011  18,7    15,6    00:04    22,3    16:33  8,9    4,8    03:29    12,8    23:23  53,0    46    03:29    69    23:49  1015,7    1015    01:30    1017    23:59  0,0  2,1  13,0  
  14.06.2011  19,9    16,5    23:53    24,0    17:15  11,8    8,9    19:50    14,3    06:56  61,5    41    17:09    83    06:02  1017,3    1015    05:59    1019    20:59  0,0  2,5  16,9  
  15.06.2011  19,4    14,2    04:06    25,0    16:35  13,7    10,9    00:19    21,0    14:56  71,1    46    16:56    98    13:51  1016,1    1013    18:29    1018    00:00  6,6  1,3  12,2  
  16.06.2011  19,1    13,9    23:59    25,4    13:42  11,8    5,9    23:51    14,4    10:50  64,1    39    18:39    84    03:30  1011,8    1009    13:44    1015    00:29  0,0  2,8  26,3  
  17.06.2011  16,5    11,0    04:51    22,9    12:51  6,5    4,6    17:18    10,5    23:54  53,9    33    13:09    75    23:59  1012,7    1005    23:59    1018    06:44  0,0  2,2  14,0  
  18.06.2011  16,3    14,2    23:59    21,4    16:11  8,7    4,2    16:30    13,5    05:27  63,3    34    16:13    90    05:27  1004,7    1001    03:28    1008    23:59  0,9  4,0  24,8  
  19.06.2011  15,3    13,0    01:23    19,3    14:09  7,4    5,6    00:09    11,2    16:34  59,7    43    14:09    70    11:37  1010,4    1007    00:13    1017    22:28  1,0  4,7  23,4  
  20.06.2011  14,2    9,8    05:53    16,3    09:25  10,6    4,9    05:12    15,2    19:34  79,7    54    09:27    97    23:59  1014,6    1012    18:58    1017    08:13  3,0  1,2  10,4  
  21.06.2011  18,9    15,3    00:00    24,0    17:50  14,6    11,4    21:11    18,9    11:34  79,0    47    17:23    98    01:15  1012,6    1011    03:28    1015    15:12  2,7  1,9  16,2  
  22.06.2011  17,8    14,5    23:16    21,8    11:32  14,1    8,5    19:53    18,4    12:49  79,9    53    19:53    98    13:08  1011,4    1008    15:42    1014    20:57  6,7  2,3  20,9  
  23.06.2011  16,7    13,6    23:43    22,0    16:28  8,9    4,0    18:13    11,7    06:45  62,5    33    16:29    82    05:59  1015,7    1013    05:12    1019    22:57  0,0  3,1  23,4  
  24.06.2011  14,7    11,7    03:04    19,3    15:24  7,3    4,8    21:40    10,9    13:10  62,1    44    15:29    77    08:24  1021,3    1019    00:00    1024    20:57  0,0  2,7  27,7  
  25.06.2011  13,5    11,0    03:01    16,1    23:59  11,4    5,8    00:00    15,8    23:59  87,3    65    00:00    98    12:46  1023,6    1022    18:41    1026    10:11  3,0  0,8  10,4  
  26.06.2011  20,2    16,0    01:01    26,3    17:11  15,4    11,7    21:10    18,8    10:49  77,3    45    17:19    98    00:00  1021,8    1019    22:56    1023    07:56  0,0  1,4  13,7  
  27.06.2011  25,0    17,0    01:49    33,5    17:05  13,9    12,1    17:45    15,5    13:25  54,7    29    16:26    84    02:13  1016,9    1013    17:56    1020    00:00  0,0  2,3  20,2  
  28.06.2011  28,3    20,9    05:19    36,0    16:38  13,1    10,9    20:31    15,7    11:47  40,9    26    16:52    59    05:33  1012,5    1008    19:25    1015    06:26  0,0  2,5  20,2  
  29.06.2011  19,9    16,5    17:03    25,1    00:00  15,9    9,8    23:48    21,1    08:16  78,9    50    00:03    98    06:05  1015,6    1011    00:10    1020    23:59  1,8  3,5  18,0  
  30.06.2011  16,3    12,5    05:25    21,2    13:08  8,1    4,3    13:31    11,3    07:48  60,0    35    13:09    85    06:25  1021,9    1019    00:25    1023    10:55  0,9  3,3  20,5  
 
  Gesamt  18,3  9,0            36,0            10,2  -0,4            21,1            63,1  22            98            1015,6  1001            1032            54,1  2,5  27,7  
 
  Mittelwert  18,3  13,6            23,9            10,2  6,5            13,9            63,1  38,6            85,3            1015,6  1012,2            1018,5            1,8  2,5  18,9  
  Minimum  13,5  9,0            16,1            3,1  -0,4            6,2            40,0  22,0            59,0            1002,6  1001,0            1004,0            0,0  0,8  10,4  
  Maximum  28,3  20,9            36,0            16,1  12,1            21,1            87,3  65,0            98,0            1031,0  1029,0            1032,0            13,1  4,7  27,7  

  Heie Tage    Tmax >=30C     3  
  Sommertage    Tmax >=25C     11  
  Warme Tage    Tmax >=20C     26  
  Kalte Tage    Tmax  <10C     0  
  Frosttage    Tmin  <0C     0  
  Eistage    Tmax  <0C     0  
  Regentage > 0 mm    15  
  Regentage > 2 mm    9  
  Regentage > 10 mm    1  
  Regentage > 20 mm    0